createdAt,value
2022-08-19T00:01:56.398Z,24.50
2022-08-19T00:04:30.430Z,24.00
2022-08-19T00:06:58.434Z,24.50
2022-08-19T00:09:28.865Z,23.70
2022-08-19T00:11:58.906Z,23.00
2022-08-19T00:14:28.211Z,24.10
2022-08-19T00:16:56.125Z,24.20
2022-08-19T00:19:25.467Z,24.10
2022-08-19T00:21:54.129Z,23.90
2022-08-19T00:24:21.520Z,24.60
2022-08-19T00:29:19.740Z,24.10
2022-08-19T00:31:48.747Z,22.80
2022-08-19T00:34:18.087Z,24.00
2022-08-19T00:39:15.754Z,25.10
2022-08-19T00:41:47.790Z,24.80
2022-08-19T00:44:27.460Z,22.30
2022-08-19T00:46:59.191Z,23.80
2022-08-19T00:49:47.049Z,23.10
2022-08-19T00:52:32.585Z,23.80
2022-08-19T00:55:01.374Z,22.30
2022-08-19T00:57:37.779Z,24.40
2022-08-19T01:00:13.213Z,25.40
2022-08-19T01:05:19.740Z,23.70
2022-08-19T01:07:49.452Z,23.50
2022-08-19T01:10:22.285Z,22.00
2022-08-19T01:12:51.300Z,22.60
2022-08-19T01:15:25.645Z,22.20
2022-08-19T01:17:55.197Z,22.90
2022-08-19T01:20:24.957Z,24.80
2022-08-19T01:22:59.648Z,24.40
2022-08-19T01:25:36.362Z,24.50
2022-08-19T01:33:11.874Z,24.00
2022-08-19T01:35:39.623Z,23.00
2022-08-19T01:38:19.993Z,23.80
2022-08-19T01:43:15.499Z,24.20
2022-08-19T01:45:43.631Z,23.50
2022-08-19T01:48:10.709Z,23.50
2022-08-19T01:50:38.930Z,25.60
2022-08-19T01:53:12.388Z,23.80
2022-08-19T01:55:43.777Z,23.80
2022-08-19T01:58:22.066Z,24.30
2022-08-19T02:00:51.152Z,24.00
2022-08-19T02:03:18.556Z,24.60
2022-08-19T02:05:46.827Z,23.60
2022-08-19T02:08:14.543Z,23.90
2022-08-19T02:10:45.554Z,23.80
2022-08-19T02:13:14.752Z,23.60
2022-08-19T02:15:42.604Z,22.80
2022-08-19T02:20:40.149Z,24.40
2022-08-19T02:23:13.869Z,23.90
2022-08-19T02:25:49.096Z,22.30
2022-08-19T02:28:18.918Z,24.60
2022-08-19T02:30:48.957Z,24.40
2022-08-19T02:33:17.306Z,24.50
2022-08-19T02:35:48.616Z,23.30
2022-08-19T02:38:28.963Z,23.40
2022-08-19T02:41:05.185Z,23.40
2022-08-19T02:43:38.568Z,23.70
2022-08-19T02:46:22.168Z,23.00
2022-08-19T02:48:56.866Z,23.50
2022-08-19T02:51:43.202Z,23.30
2022-08-19T02:54:13.843Z,23.70
2022-08-19T02:56:45.006Z,23.00
2022-08-19T02:59:12.906Z,23.80
2022-08-19T03:01:43.185Z,23.30
2022-08-19T03:04:14.119Z,23.20
2022-08-19T03:06:47.021Z,23.50
2022-08-19T03:09:15.608Z,23.40
2022-08-19T03:11:43.058Z,23.00
2022-08-19T03:14:11.547Z,24.10
2022-08-19T03:16:52.475Z,23.40
2022-08-19T03:19:22.729Z,23.30
2022-08-19T03:21:51.813Z,23.90
2022-08-19T03:24:20.024Z,23.80
2022-08-19T03:26:52.965Z,23.50
2022-08-19T03:29:30.318Z,24.10
2022-08-19T03:34:37.318Z,23.90
2022-08-19T03:37:10.941Z,23.50
2022-08-19T03:39:41.787Z,23.40
2022-08-19T03:42:32.679Z,23.20
2022-08-19T03:44:57.517Z,22.30
2022-08-19T03:54:47.692Z,23.00
2022-08-19T03:57:14.784Z,23.50
2022-08-19T04:02:13.763Z,23.20
2022-08-19T04:04:44.387Z,22.50
2022-08-19T04:07:17.263Z,23.60
2022-08-19T04:12:12.476Z,23.80
2022-08-19T04:14:41.109Z,24.80
2022-08-19T04:19:38.072Z,23.50
2022-08-19T04:22:07.856Z,24.10
2022-08-19T04:24:36.409Z,23.70
2022-08-19T04:27:06.596Z,25.00
2022-08-19T04:29:34.989Z,22.40
2022-08-19T04:35:02.195Z,23.60
2022-08-19T04:37:25.788Z,25.50
2022-08-19T04:40:11.633Z,25.60
2022-08-19T04:42:41.943Z,25.60
2022-08-19T04:45:15.383Z,24.90
2022-08-19T04:47:49.400Z,25.50
2022-08-19T04:50:27.832Z,25.70
2022-08-19T04:57:55.673Z,25.90
2022-08-19T05:00:23.449Z,25.80
2022-08-19T05:02:50.679Z,25.60
2022-08-19T05:05:18.640Z,26.00
2022-08-19T05:10:14.514Z,27.40
2022-08-19T05:15:09.978Z,27.10
2022-08-19T05:17:39.019Z,28.30
2022-08-19T05:20:27.199Z,28.30
2022-08-19T05:22:54.973Z,28.90
2022-08-19T05:25:23.313Z,28.80
2022-08-19T05:27:50.755Z,28.70
2022-08-19T05:30:33.517Z,28.90
2022-08-19T05:35:34.961Z,31.20
2022-08-19T05:38:02.612Z,30.50
2022-08-19T05:40:30.005Z,31.10
2022-08-19T05:42:57.417Z,32.00
2022-08-19T05:45:25.714Z,31.30
2022-08-19T05:47:53.003Z,30.80
2022-08-19T05:50:20.373Z,30.90
2022-08-19T05:52:50.164Z,30.50
2022-08-19T05:57:51.878Z,30.40
2022-08-19T06:00:24.052Z,31.00
2022-08-19T06:02:52.473Z,30.80
2022-08-19T06:05:21.044Z,31.40
2022-08-19T06:10:17.137Z,31.30
2022-08-19T06:12:44.817Z,31.00
2022-08-19T06:15:27.611Z,30.70
2022-08-19T06:20:52.334Z,31.20
2022-08-19T06:23:11.202Z,31.30
2022-08-19T06:25:44.267Z,31.70
2022-08-19T06:28:15.006Z,32.40
2022-08-19T06:33:10.332Z,30.90
2022-08-19T06:35:42.663Z,33.10
2022-08-19T06:38:10.554Z,33.70
2022-08-19T06:43:09.471Z,33.60
2022-08-19T06:45:39.787Z,34.60
2022-08-19T06:48:08.081Z,31.90
2022-08-19T06:50:36.832Z,35.20
2022-08-19T06:53:07.003Z,35.20
2022-08-19T06:55:34.182Z,33.90
2022-08-19T06:58:05.765Z,35.00
2022-08-19T07:05:45.797Z,31.80
2022-08-19T07:10:46.439Z,35.60
2022-08-19T07:13:14.019Z,35.20
2022-08-19T07:15:41.501Z,34.60
2022-08-19T07:20:42.047Z,35.30
2022-08-19T07:23:11.164Z,36.90
2022-08-19T07:25:44.511Z,36.00
2022-08-19T07:28:20.220Z,37.40
2022-08-19T07:35:48.473Z,37.80
2022-08-19T07:38:17.542Z,36.50
2022-08-19T07:40:47.353Z,38.00
2022-08-19T07:43:17.390Z,39.50
2022-08-19T07:48:13.633Z,38.40
2022-08-19T07:53:08.550Z,39.40
2022-08-19T07:55:40.089Z,38.50
2022-08-19T07:58:14.462Z,38.50
2022-08-19T08:00:44.286Z,38.60
2022-08-19T08:03:13.069Z,38.80
2022-08-19T08:05:59.287Z,39.20
2022-08-19T08:11:01.866Z,38.60
2022-08-19T08:13:29.688Z,37.50
2022-08-19T08:15:58.339Z,37.80
2022-08-19T08:18:27.896Z,36.10
2022-08-19T08:20:59.087Z,36.50
2022-08-19T08:23:27.214Z,37.80
2022-08-19T08:25:59.263Z,35.00
2022-08-19T08:28:29.533Z,37.30
2022-08-19T08:30:58.850Z,34.40
2022-08-19T08:33:34.304Z,33.20
2022-08-19T08:36:14.807Z,34.40
2022-08-19T08:38:47.098Z,34.30
2022-08-19T08:43:53.037Z,35.00
2022-08-19T08:47:02.409Z,35.20
2022-08-19T08:50:02.648Z,38.60
2022-08-19T08:52:43.633Z,39.30
2022-08-19T08:55:20.644Z,38.70
2022-08-19T08:57:59.800Z,38.90
2022-08-19T09:00:37.581Z,40.40
2022-08-19T09:03:26.318Z,39.80
2022-08-19T09:06:30.111Z,38.80
2022-08-19T09:09:18.198Z,38.50
2022-08-19T09:12:04.598Z,39.50
2022-08-19T09:14:55.117Z,38.60
2022-08-19T09:17:32.085Z,39.70
2022-08-19T09:20:26.240Z,40.70
2022-08-19T09:22:53.585Z,42.50
2022-08-19T09:25:26.666Z,40.20
2022-08-19T09:28:02.344Z,43.10
2022-08-19T09:30:36.168Z,40.70
2022-08-19T09:33:03.638Z,43.20
2022-08-19T09:35:31.887Z,40.40
2022-08-19T09:38:01.188Z,40.20
2022-08-19T09:40:31.931Z,42.90
2022-08-19T09:43:10.112Z,44.10
2022-08-19T09:45:41.732Z,44.10
2022-08-19T09:48:09.518Z,43.40
2022-08-19T09:50:51.247Z,42.20
2022-08-19T09:53:20.330Z,42.20
2022-08-19T09:58:15.271Z,40.10
2022-08-19T10:00:42.517Z,40.50
2022-08-19T10:03:09.700Z,40.50
2022-08-19T10:05:50.498Z,42.40
2022-08-19T10:08:30.442Z,44.00
2022-08-19T10:10:58.916Z,42.80
2022-08-19T10:13:29.472Z,41.80
2022-08-19T10:16:05.494Z,42.40
2022-08-19T10:18:35.292Z,40.30
2022-08-19T10:21:13.218Z,42.00
2022-08-19T10:23:48.260Z,40.60
2022-08-19T10:26:24.749Z,42.00
2022-08-19T10:28:54.194Z,39.30
2022-08-19T10:32:00.924Z,42.40
2022-08-19T10:34:27.650Z,40.20
2022-08-19T10:37:01.342Z,41.10
2022-08-19T10:39:41.121Z,41.80
2022-08-19T10:42:11.839Z,40.50
2022-08-19T10:47:24.517Z,38.30
2022-08-19T10:50:13.506Z,39.40
2022-08-19T10:52:49.897Z,38.80
2022-08-19T10:55:42.452Z,40.00
2022-08-19T10:58:16.812Z,41.60
2022-08-19T11:00:45.165Z,39.30
2022-08-19T11:03:12.366Z,39.80
2022-08-19T11:08:21.257Z,38.70
2022-08-19T11:10:56.419Z,39.80
2022-08-19T11:16:07.702Z,39.80
2022-08-19T11:18:54.319Z,38.20
2022-08-19T11:21:35.486Z,38.60
2022-08-19T11:24:07.831Z,39.00
2022-08-19T11:26:37.016Z,39.00
2022-08-19T11:29:07.142Z,38.40
2022-08-19T11:31:37.243Z,39.20
2022-08-19T11:34:08.039Z,38.90
2022-08-19T11:36:38.402Z,39.20
2022-08-19T11:39:08.807Z,38.20
2022-08-19T11:44:05.694Z,38.80
2022-08-19T11:46:34.864Z,38.10
2022-08-19T11:49:04.080Z,37.90
2022-08-19T11:54:01.042Z,38.50
2022-08-19T11:56:29.937Z,37.40
2022-08-19T11:58:59.821Z,38.60
2022-08-19T12:01:28.090Z,39.30
2022-08-19T12:03:59.857Z,39.30
2022-08-19T12:06:35.142Z,38.80
2022-08-19T12:09:10.567Z,38.20
2022-08-19T12:11:39.622Z,39.10
2022-08-19T12:16:49.050Z,37.60
2022-08-19T12:19:22.118Z,38.50
2022-08-19T12:21:51.921Z,39.30
2022-08-19T12:24:24.580Z,39.10
2022-08-19T12:29:24.311Z,39.30
2022-08-19T12:31:52.676Z,38.90
2022-08-19T12:34:21.280Z,38.00
2022-08-19T12:36:50.407Z,37.60
2022-08-19T12:39:18.003Z,38.20
2022-08-19T12:44:28.934Z,39.50
2022-08-19T12:46:59.013Z,39.50
2022-08-19T12:49:52.354Z,39.30
2022-08-19T12:52:19.870Z,38.60
2022-08-19T12:54:54.516Z,38.60
2022-08-19T13:00:12.473Z,37.40
2022-08-19T13:02:46.794Z,38.50
2022-08-19T13:05:28.324Z,38.60
2022-08-19T13:07:58.311Z,37.70
2022-08-19T13:10:38.107Z,37.30
2022-08-19T13:13:11.172Z,38.20
2022-08-19T13:15:43.104Z,37.30
2022-08-19T13:18:11.547Z,37.20
2022-08-19T13:23:10.382Z,37.50
2022-08-19T13:25:37.900Z,38.60
2022-08-19T13:30:53.248Z,36.80
2022-08-19T13:33:20.618Z,36.50
2022-08-19T13:35:58.400Z,34.90
2022-08-19T13:38:25.966Z,37.50
2022-08-19T13:40:55.669Z,36.70
2022-08-19T13:43:27.987Z,36.50
2022-08-19T13:45:59.180Z,37.40
2022-08-19T13:48:28.130Z,36.80
2022-08-19T13:50:56.236Z,35.20
2022-08-19T13:53:24.240Z,35.10
2022-08-19T14:00:48.515Z,36.60
2022-08-19T14:03:16.218Z,35.00
2022-08-19T14:13:15.644Z,36.80
2022-08-19T14:20:38.293Z,37.30
2022-08-19T14:23:08.680Z,38.00
2022-08-19T14:25:36.019Z,35.90
2022-08-19T14:28:03.443Z,36.20
2022-08-19T14:30:34.902Z,36.20
2022-08-19T14:33:05.805Z,36.00
2022-08-19T14:35:37.274Z,35.80
2022-08-19T14:38:07.867Z,35.50
2022-08-19T14:43:05.750Z,36.00
2022-08-19T14:45:37.813Z,33.00
2022-08-19T14:48:12.601Z,33.20
2022-08-19T14:55:46.468Z,31.60
2022-08-19T14:58:28.977Z,32.20
2022-08-19T15:01:00.553Z,31.10
2022-08-19T15:10:56.888Z,31.30
2022-08-19T15:20:51.045Z,32.00
2022-08-19T15:23:20.937Z,30.80
2022-08-19T15:25:49.510Z,30.80
2022-08-19T15:33:17.186Z,30.60
2022-08-19T15:35:45.225Z,28.90
2022-08-19T15:40:42.675Z,31.60
2022-08-19T15:48:05.741Z,30.10
2022-08-19T15:50:33.103Z,31.80
2022-08-19T15:53:06.293Z,30.20
2022-08-19T15:55:42.477Z,29.90
2022-08-19T15:58:32.976Z,29.90
2022-08-19T16:01:27.055Z,30.00
2022-08-19T16:04:16.734Z,29.70
2022-08-19T16:06:57.362Z,29.80
2022-08-19T16:09:30.005Z,28.80
2022-08-19T16:12:04.083Z,29.00
2022-08-19T16:14:35.352Z,29.80
2022-08-19T16:24:29.444Z,29.50
2022-08-19T16:26:57.629Z,29.60
2022-08-19T16:32:05.363Z,29.60
2022-08-19T16:34:33.754Z,29.50
2022-08-19T16:37:01.267Z,28.60
2022-08-19T16:49:53.526Z,28.60
2022-08-19T16:52:20.174Z,29.30
2022-08-19T16:54:48.819Z,29.40
2022-08-19T17:02:20.485Z,28.30
2022-08-19T17:07:33.097Z,28.70
2022-08-19T17:15:02.824Z,28.60
2022-08-19T17:17:31.449Z,28.60
2022-08-19T17:20:00.706Z,28.50
2022-08-19T17:27:32.087Z,28.30
2022-08-19T17:32:33.486Z,29.70
2022-08-19T17:39:56.943Z,27.10
2022-08-19T17:47:21.289Z,28.20
2022-08-19T18:02:11.308Z,27.80
2022-08-19T18:04:39.511Z,27.80
2022-08-19T18:09:41.414Z,27.20
2022-08-19T18:12:15.767Z,27.40
2022-08-19T18:17:17.521Z,27.70
2022-08-19T18:19:47.414Z,27.50
2022-08-19T18:22:27.562Z,27.00
2022-08-19T18:24:57.929Z,27.50
2022-08-19T18:27:27.245Z,27.40
2022-08-19T18:29:59.942Z,27.40
2022-08-19T18:32:38.278Z,28.10
2022-08-19T18:35:12.049Z,27.20
2022-08-19T18:37:42.238Z,27.30
2022-08-19T18:40:33.729Z,27.20
2022-08-19T18:56:29.395Z,26.80
2022-08-19T19:01:33.156Z,26.70
2022-08-19T19:04:06.059Z,26.40
2022-08-19T19:06:40.958Z,26.60
2022-08-19T19:09:12.186Z,26.50
2022-08-19T19:11:46.322Z,26.50
2022-08-19T19:14:45.673Z,26.30
2022-08-19T19:17:13.911Z,26.20
2022-08-19T19:19:44.109Z,26.10
2022-08-19T19:22:17.174Z,26.00
2022-08-19T19:27:15.567Z,26.10
2022-08-19T19:32:22.446Z,25.90
2022-08-19T19:42:22.702Z,25.00
2022-08-19T19:44:55.005Z,24.90
2022-08-19T20:00:19.204Z,23.40
2022-08-19T20:05:21.455Z,24.00
2022-08-19T20:10:38.422Z,23.00
2022-08-19T20:30:32.071Z,24.20
2022-08-19T20:45:32.951Z,23.60
2022-08-19T20:50:35.298Z,23.00
2022-08-19T20:53:12.377Z,23.30
2022-08-19T20:58:12.929Z,23.70
2022-08-19T21:00:43.869Z,23.40
2022-08-19T21:20:43.115Z,23.70
2022-08-19T21:23:16.932Z,21.70
2022-08-19T22:03:28.013Z,22.30
2022-08-19T22:25:46.829Z,22.10
2022-08-19T22:28:18.962Z,22.20
2022-08-19T22:35:53.130Z,22.30
2022-08-19T22:43:21.728Z,22.40
2022-08-19T22:45:51.715Z,22.30
2022-08-19T22:51:08.164Z,22.20
2022-08-19T22:53:39.207Z,22.10
2022-08-19T22:56:14.619Z,21.90
2022-08-19T23:14:12.677Z,21.90
2022-08-19T23:16:42.070Z,21.80
2022-08-19T23:24:07.255Z,23.20
2022-08-19T23:29:24.528Z,21.60
